Wetterdaten: aktuell Mittwoch, 20.02.2019 18:15
Datum Zeit Temp. A. Feuchte A. Luftdruck Regen Wind Richtung Richtung Sonnenschein Solar Taupunkt Windchill Windben
20.02.2019 18:15 9,2 C 65 % 1023,8 hPa 0,0 l/m 9,0 km/h W-NW 294 0 min 0 W/m 3,0 C 7,9 C 12,9 km/h
20.02.2019 17:15 10,2 C 59 % 1023,0 hPa 0,0 l/m 12,1 km/h W-NW 286 0 min 7 W/m 2,6 C 10,2 C 16,1 km/h
20.02.2019 16:15 11,8 C 52 % 1022,7 hPa 0,0 l/m 13,1 km/h W-NW 299 46 min 89 W/m 2,3 C 11,8 C 19,3 km/h
20.02.2019 15:15 12,3 C 51 % 1022,7 hPa 0,0 l/m 15,2 km/h W-NW 282 55 min 278 W/m 2,5 C 12,3 C 20,9 km/h
20.02.2019 14:15 11,7 C 53 % 1022,8 hPa 0,0 l/m 10,3 km/h N-NW 339 45 min 341 W/m 2,4 C 11,7 C 16,1 km/h
20.02.2019 13:15 11,3 C 53 % 1023,0 hPa 0,0 l/m 16,2 km/h N 360 50 min 389 W/m 2,1 C 11,3 C 20,9 km/h
20.02.2019 12:15 10,9 C 56 % 1023,4 hPa 0,0 l/m 12,2 km/h NW 319 60 min 518 W/m 2,5 C 10,9 C 19,3 km/h
20.02.2019 11:15 9,4 C 62 % 1023,7 hPa 0,0 l/m 15,2 km/h NW 305 10 min 284 W/m 2,5 C 7,1 C 22,5 km/h
20.02.2019 10:15 9,4 C 66 % 1023,4 hPa 0,0 l/m 15,3 km/h W-NW 300 55 min 351 W/m 3,4 C 7,1 C 24,1 km/h
20.02.2019 09:15 7,8 C 79 % 1023,1 hPa 0,0 l/m 7,3 km/h W 279 40 min 202 W/m 4,4 C 6,6 C 22,5 km/h
20.02.2019 08:16 4,9 C 88 % 1022,6 hPa 0,0 l/m 2,4 km/h W-NW 301 25 min 84 W/m 3,1 C 4,9 C 12,9 km/h
20.02.2019 07:15 3,5 C 87 % 1022,1 hPa 0,0 l/m 0,0 km/h W 270 5 min 24 W/m 1,5 C 3,5 C 0,0 km/h
20.02.2019 06:15 3,8 C 80 % 1021,7 hPa 0,0 l/m 0,1 km/h W-NW 284 0 min 0 W/m 0,7 C 3,8 C 3,2 km/h
20.02.2019 05:15 5,4 C 75 % 1021,4 hPa 0,0 l/m 0,0 km/h W-NW 289 0 min 0 W/m 1,3 C 5,4 C 0,0 km/h
20.02.2019 04:15 6,7 C 71 % 1021,1 hPa 0,0 l/m 4,5 km/h W-NW 296 0 min 0 W/m 1,8 C 6,7 C 14,5 km/h
20.02.2019 03:15 7,5 C 71 % 1020,8 hPa 0,0 l/m 5,4 km/h W-NW 298 0 min 0 W/m 2,6 C 6,8 C 19,3 km/h
20.02.2019 02:15 8,7 C 70 % 1020,5 hPa 0,0 l/m 0,2 km/h NW 326 0 min 0 W/m 3,5 C 8,7 C 9,7 km/h
20.02.2019 01:15 6,9 C 74 % 1019,9 hPa 0,0 l/m 0,0 km/h O-NO 57 0 min 0 W/m 2,6 C 6,9 C 0,0 km/h
20.02.2019 00:15 7,4 C 69 % 1019,5 hPa 0,0 l/m 0,0 km/h O 92 0 min 0 W/m 2,1 C 7,4 C 1,6 km/h
20.02.2019 00:00 7,3 C 68 % 1019,4 hPa 0,0 l/m 0,0 km/h O 92 0 min 0 W/m 1,8 C 7,3 C 0,0 km/h
_ Min-Zeit 06:50 14:45 00:00 - 00:00 - - - - 06:50 06:50 00:00
Minimum _ 2,5 C 49 % 1019,4 hPa - 0,0 km/h - - - - -0,1 C 2,5 C 0,0 km/h
_ Max-Zeit 15:35 08:10 18:15 00:00 10:35 - - 09:31 12:10 09:15 15:35 12:00
Maximum _ 12,5 C 88 % 1023,8 hPa 0,0 l/m 19,2 km/h
N
- - 6 min 558 W/m 4,4 C 12,4 C 30,6 km/h
W-NW
Durchschnitt _ 8,3 C 67 % 1022,2 hPa #0,0 l/m 7,2 km/h W-NW - #6:36 h 230 W/m 2,4 C 7,9 C 13,7 km/h